Terminal Aerodrome Forecast
Issued by NWS

Current Version | Previous Version | Text Only | Print | Product List | Glossary Off
Versions: 1 2 3 4 5 6 7 8 9 10 11 12 13 14 15

000
FTUS41 KILN 241700
TAFLUK
TAF
KLUK 241732Z 2418/2518 21012KT P6SM SCT100 BKN150
     FM242300 16008KT P6SM BKN200
     FM251300 22014G24KT P6SM VCSH SCT040 BKN080=

USA.gov is the U.S. government's official web portal to all federal, state and local government web resources and services.